createdAt,value
2017-11-06T00:00:25.856Z,18.60
2017-11-06T00:02:52.000Z,16.03
2017-11-06T00:05:18.140Z,16.47
2017-11-06T00:07:44.269Z,17.10
2017-11-06T00:10:10.429Z,17.53
2017-11-06T00:12:36.708Z,15.50
2017-11-06T00:15:02.980Z,16.00
2017-11-06T00:17:29.185Z,15.80
2017-11-06T00:19:55.410Z,15.30
2017-11-06T00:22:21.545Z,15.00
2017-11-06T00:24:47.689Z,15.73
2017-11-06T00:27:13.880Z,14.30
2017-11-06T00:29:40.130Z,14.13
2017-11-06T00:32:06.384Z,13.20
2017-11-06T00:34:32.610Z,14.57
2017-11-06T00:36:58.812Z,14.03
2017-11-06T00:39:25.023Z,15.03
2017-11-06T00:41:51.143Z,15.37
2017-11-06T00:44:17.337Z,14.47
2017-11-06T00:46:44.262Z,15.63
2017-11-06T00:49:10.429Z,14.30
2017-11-06T00:51:36.721Z,13.90
2017-11-06T00:54:02.982Z,17.00
2017-11-06T00:56:29.124Z,16.33
2017-11-06T00:58:55.369Z,14.43
2017-11-06T01:01:21.509Z,15.53
2017-11-06T01:03:47.659Z,14.77
2017-11-06T01:06:13.916Z,14.80
2017-11-06T01:08:40.873Z,14.63
2017-11-06T01:11:07.802Z,15.30
2017-11-06T01:13:33.955Z,14.70
2017-11-06T01:16:00.070Z,15.70
2017-11-06T01:18:26.177Z,13.00
2017-11-06T01:20:52.300Z,14.70
2017-11-06T01:23:18.517Z,13.50
2017-11-06T01:25:44.713Z,13.70
2017-11-06T01:28:10.881Z,13.53
2017-11-06T01:30:37.102Z,13.83
2017-11-06T01:33:03.260Z,13.60
2017-11-06T01:35:29.511Z,13.60
2017-11-06T01:37:55.723Z,13.00
2017-11-06T01:40:21.866Z,13.03
2017-11-06T01:42:48.053Z,12.43
2017-11-06T01:45:14.982Z,12.57
2017-11-06T01:47:41.218Z,13.50
2017-11-06T01:50:07.542Z,14.10
2017-11-06T01:52:33.669Z,13.67
2017-11-06T01:54:59.779Z,13.13
2017-11-06T01:57:25.888Z,12.33
2017-11-06T01:59:52.003Z,12.77
2017-11-06T02:02:18.081Z,12.37
2017-11-06T02:04:45.053Z,12.50
2017-11-06T02:07:11.209Z,13.10
2017-11-06T02:09:37.381Z,11.70
2017-11-06T02:12:03.626Z,11.30
2017-11-06T02:14:30.795Z,11.53
2017-11-06T02:16:57.031Z,10.67
2017-11-06T02:19:23.302Z,10.53
2017-11-06T02:21:49.493Z,10.20
2017-11-06T02:24:15.635Z,9.63
2017-11-06T02:26:41.790Z,9.57
2017-11-06T02:29:08.005Z,11.33
2017-11-06T02:31:34.147Z,10.17
2017-11-06T02:34:00.317Z,9.30
2017-11-06T02:36:27.245Z,9.80
2017-11-06T02:38:53.348Z,9.30
2017-11-06T02:41:19.528Z,9.27
2017-11-06T02:43:45.656Z,8.50
2017-11-06T02:46:11.738Z,9.20
2017-11-06T02:48:38.654Z,9.60
2017-11-06T02:51:04.766Z,10.07
2017-11-06T02:53:30.979Z,9.70
2017-11-06T02:55:57.237Z,9.07
2017-11-06T02:58:24.201Z,8.50
2017-11-06T03:00:50.373Z,9.03
2017-11-06T03:03:16.517Z,8.70
2017-11-06T03:05:42.739Z,8.60
2017-11-06T03:08:08.953Z,10.03
2017-11-06T03:10:35.155Z,8.93
2017-11-06T03:13:02.085Z,8.13
2017-11-06T03:15:28.208Z,8.10
2017-11-06T03:17:54.398Z,8.43
2017-11-06T03:20:21.265Z,7.50
2017-11-06T03:22:48.115Z,8.30
2017-11-06T03:25:14.999Z,8.40
2017-11-06T03:27:42.189Z,8.40
2017-11-06T03:30:08.342Z,9.00
2017-11-06T03:32:34.593Z,8.53
2017-11-06T03:35:00.690Z,9.40
2017-11-06T03:37:26.834Z,9.80
2017-11-06T03:39:53.020Z,9.53
2017-11-06T03:42:19.240Z,9.73
2017-11-06T03:44:45.465Z,8.80
2017-11-06T03:47:11.627Z,9.27
2017-11-06T03:49:37.862Z,10.27
2017-11-06T03:52:04.071Z,8.77
2017-11-06T03:54:30.254Z,9.70
2017-11-06T03:56:56.442Z,9.43
2017-11-06T03:59:22.525Z,8.07
2017-11-06T04:01:48.667Z,8.77
2017-11-06T04:04:16.417Z,8.93
2017-11-06T04:06:42.520Z,7.93
2017-11-06T04:09:08.640Z,8.13
2017-11-06T04:11:34.870Z,7.90
2017-11-06T04:14:01.781Z,7.70
2017-11-06T04:16:27.923Z,8.67
2017-11-06T04:21:51.958Z,9.20
2017-11-06T04:24:18.158Z,8.10
2017-11-06T04:26:44.303Z,8.60
2017-11-06T04:29:10.476Z,8.53
2017-11-06T04:31:36.685Z,7.93
2017-11-06T04:34:08.769Z,7.67
2017-11-06T04:36:34.910Z,8.10
2017-11-06T04:39:01.093Z,8.10
2017-11-06T04:41:27.299Z,8.70
2017-11-06T04:43:53.491Z,7.60
2017-11-06T04:46:19.723Z,7.20
2017-11-06T04:48:46.674Z,8.77
2017-11-06T04:51:12.862Z,7.47
2017-11-06T04:53:39.002Z,7.40
2017-11-06T04:56:05.186Z,7.60
2017-11-06T04:58:32.170Z,7.33
2017-11-06T05:00:58.381Z,7.53
2017-11-06T05:03:24.592Z,8.37
2017-11-06T05:05:50.730Z,7.70
2017-11-06T05:08:16.971Z,8.13
2017-11-06T05:10:43.141Z,8.03
2017-11-06T05:13:09.345Z,7.77
2017-11-06T05:15:35.470Z,8.13
2017-11-06T05:18:01.720Z,7.70
2017-11-06T05:20:27.829Z,7.47
2017-11-06T05:22:53.968Z,7.97
2017-11-06T05:25:20.099Z,7.90
2017-11-06T05:27:46.278Z,7.10
2017-11-06T05:30:12.414Z,8.57
2017-11-06T05:32:38.588Z,8.47
2017-11-06T05:35:05.530Z,7.80
2017-11-06T05:37:31.753Z,8.40
2017-11-06T05:39:58.001Z,8.10
2017-11-06T05:42:24.119Z,8.60
2017-11-06T05:44:50.335Z,7.70
2017-11-06T05:47:16.570Z,8.30
2017-11-06T05:49:43.495Z,8.93
2017-11-06T05:52:09.695Z,9.13
2017-11-06T05:54:35.857Z,9.00
2017-11-06T05:57:01.973Z,8.87
2017-11-06T05:59:28.127Z,9.50
2017-11-06T06:01:54.280Z,9.10
2017-11-06T06:04:20.407Z,8.90
2017-11-06T06:06:46.529Z,8.73
2017-11-06T06:09:12.686Z,8.30
2017-11-06T06:11:38.852Z,10.10
2017-11-06T06:14:05.158Z,9.10
2017-11-06T06:16:31.326Z,9.63
2017-11-06T06:18:57.528Z,9.40
2017-11-06T06:21:23.657Z,10.40
2017-11-06T06:23:49.810Z,9.63
2017-11-06T06:26:15.954Z,9.27
2017-11-06T06:28:42.078Z,9.90
2017-11-06T06:31:08.267Z,10.20
2017-11-06T06:33:35.190Z,9.83
2017-11-06T06:36:01.422Z,10.17
2017-11-06T06:38:27.630Z,9.77
2017-11-06T06:40:53.721Z,10.33
2017-11-06T06:43:20.026Z,10.27
2017-11-06T06:45:46.156Z,9.97
2017-11-06T06:48:12.411Z,10.77
2017-11-06T06:50:38.568Z,10.73
2017-11-06T06:53:04.719Z,9.60
2017-11-06T06:55:31.431Z,10.17
2017-11-06T06:57:57.570Z,10.10
2017-11-06T07:00:23.772Z,10.00
2017-11-06T07:02:50.689Z,9.93
2017-11-06T07:05:16.936Z,9.63
2017-11-06T07:07:43.076Z,9.63
2017-11-06T07:10:09.290Z,9.70
2017-11-06T07:12:35.384Z,10.30
2017-11-06T07:15:02.270Z,10.93
2017-11-06T07:17:28.373Z,11.30
2017-11-06T07:19:55.233Z,10.70
2017-11-06T07:22:22.093Z,10.60
2017-11-06T07:24:49.154Z,10.20
2017-11-06T07:27:15.988Z,11.53
2017-11-06T07:29:42.249Z,11.23
2017-11-06T07:32:09.108Z,11.50
2017-11-06T07:34:35.290Z,10.90
2017-11-06T07:37:01.805Z,11.63
2017-11-06T07:39:28.077Z,10.60
2017-11-06T07:41:54.248Z,10.70
2017-11-06T07:44:20.490Z,10.30
2017-11-06T07:46:46.723Z,9.93
2017-11-06T07:49:12.842Z,10.80
2017-11-06T07:51:38.971Z,8.83
2017-11-06T07:54:05.093Z,12.77
2017-11-06T07:56:31.185Z,9.43
2017-11-06T07:58:57.313Z,11.37
2017-11-06T08:01:23.418Z,10.73
2017-11-06T08:03:49.559Z,10.10
2017-11-06T08:06:15.862Z,9.60
2017-11-06T08:08:42.710Z,9.70
2017-11-06T08:11:09.573Z,10.60
2017-11-06T08:13:35.750Z,9.30
2017-11-06T08:16:01.850Z,10.27
2017-11-06T08:18:28.728Z,8.97
2017-11-06T08:20:55.609Z,9.20
2017-11-06T08:23:21.751Z,9.93
2017-11-06T08:25:47.893Z,9.30
2017-11-06T08:28:14.015Z,9.23
2017-11-06T08:30:40.122Z,9.60
2017-11-06T08:33:06.245Z,10.27
2017-11-06T08:35:33.161Z,10.10
2017-11-06T08:37:59.420Z,10.53
2017-11-06T08:40:25.591Z,10.13
2017-11-06T08:42:52.478Z,10.40
2017-11-06T08:45:18.597Z,11.63
2017-11-06T08:47:44.741Z,10.87
2017-11-06T08:50:10.874Z,10.70
2017-11-06T08:52:36.981Z,11.27
2017-11-06T08:55:03.099Z,11.90
2017-11-06T08:57:29.272Z,11.00
2017-11-06T08:59:56.182Z,10.20
2017-11-06T09:02:22.292Z,10.70
2017-11-06T09:04:48.414Z,10.20
2017-11-06T09:07:14.594Z,11.00
2017-11-06T09:09:40.743Z,10.87
2017-11-06T09:12:06.891Z,10.73
2017-11-06T09:14:33.033Z,11.53
2017-11-06T09:16:59.115Z,11.83
2017-11-06T09:19:25.233Z,12.37
2017-11-06T09:21:52.116Z,11.50
2017-11-06T09:24:18.205Z,13.50
2017-11-06T09:26:44.323Z,10.00
2017-11-06T09:29:10.415Z,10.03
2017-11-06T09:31:36.533Z,9.93
2017-11-06T09:34:03.448Z,9.90
2017-11-06T09:36:29.541Z,10.90
2017-11-06T09:38:55.642Z,10.43
2017-11-06T09:41:21.770Z,10.50
2017-11-06T09:43:47.858Z,9.30
2017-11-06T09:46:13.979Z,9.93
2017-11-06T09:48:40.858Z,9.47
2017-11-06T09:51:06.949Z,9.97
2017-11-06T09:53:33.127Z,11.00
2017-11-06T09:55:59.290Z,10.07
2017-11-06T09:58:25.389Z,10.63
2017-11-06T10:00:52.230Z,11.00
2017-11-06T10:03:19.155Z,10.43
2017-11-06T10:05:45.269Z,10.07
2017-11-06T10:08:11.482Z,9.60
2017-11-06T10:10:37.654Z,11.10
2017-11-06T10:13:03.774Z,11.67
2017-11-06T10:15:29.870Z,12.00
2017-11-06T10:17:56.010Z,12.20
2017-11-06T10:20:22.142Z,12.73
2017-11-06T10:22:48.930Z,11.17
2017-11-06T10:25:15.986Z,11.80
2017-11-06T10:27:42.198Z,11.10
2017-11-06T10:30:08.574Z,10.27
2017-11-06T10:32:34.734Z,9.50
2017-11-06T10:35:00.898Z,9.70
2017-11-06T10:37:27.031Z,9.63
2017-11-06T10:39:53.249Z,9.70
2017-11-06T10:42:19.376Z,8.33
2017-11-06T10:44:45.505Z,9.00
2017-11-06T10:47:12.654Z,9.70
2017-11-06T10:49:39.505Z,10.13
2017-11-06T10:52:06.364Z,9.80
2017-11-06T10:54:33.243Z,9.47
2017-11-06T10:56:59.410Z,9.43
2017-11-06T10:59:25.512Z,9.17
2017-11-06T11:01:51.669Z,9.20
2017-11-06T11:04:17.811Z,7.97
2017-11-06T11:06:43.918Z,8.90
2017-11-06T11:09:10.834Z,8.10
2017-11-06T11:11:36.959Z,8.93
2017-11-06T11:14:03.077Z,8.50
2017-11-06T11:16:29.196Z,7.77
2017-11-06T11:18:55.304Z,8.33
2017-11-06T11:21:21.423Z,7.97
2017-11-06T11:23:47.572Z,7.87
2017-11-06T11:26:13.665Z,8.63
2017-11-06T11:28:39.920Z,7.20
2017-11-06T11:31:06.042Z,7.90
2017-11-06T11:33:32.154Z,7.30
2017-11-06T11:35:59.005Z,7.10
2017-11-06T11:38:25.893Z,6.07
2017-11-06T11:40:51.991Z,6.90
2017-11-06T11:43:18.092Z,6.20
2017-11-06T11:45:44.275Z,7.27
2017-11-06T11:48:11.120Z,6.27
2017-11-06T11:50:37.229Z,6.70
2017-11-06T11:53:03.380Z,7.40
2017-11-06T11:55:29.487Z,7.27
2017-11-06T11:57:55.577Z,6.67
2017-11-06T12:00:22.454Z,6.10
2017-11-06T12:02:48.571Z,6.80
2017-11-06T12:05:15.402Z,6.70
2017-11-06T12:07:41.538Z,6.67
2017-11-06T12:10:07.695Z,6.73
2017-11-06T12:12:33.785Z,6.57
2017-11-06T12:14:59.956Z,6.20
2017-11-06T12:17:26.058Z,5.90
2017-11-06T12:19:52.162Z,5.87
2017-11-06T12:22:19.052Z,5.87
2017-11-06T12:24:45.179Z,6.80
2017-11-06T12:27:11.306Z,5.80
2017-11-06T12:29:37.439Z,5.47
2017-11-06T12:32:03.538Z,5.43
2017-11-06T12:34:29.654Z,5.83
2017-11-06T12:36:55.770Z,7.50
2017-11-06T12:39:21.903Z,7.30
2017-11-06T12:41:48.011Z,7.30
2017-11-06T12:44:14.867Z,5.70
2017-11-06T12:46:41.753Z,7.70
2017-11-06T12:49:07.854Z,5.50
2017-11-06T12:51:34.015Z,6.07
2017-11-06T12:54:00.845Z,7.90
2017-11-06T12:56:26.947Z,6.80
2017-11-06T12:58:53.070Z,6.23
2017-11-06T13:01:19.186Z,5.27
2017-11-06T13:03:45.306Z,4.50
2017-11-06T13:06:12.182Z,4.10
2017-11-06T13:08:38.286Z,3.80
2017-11-06T13:11:04.471Z,5.10
2017-11-06T13:13:30.586Z,4.80
2017-11-06T13:15:57.410Z,3.93
2017-11-06T13:18:23.518Z,5.27
2017-11-06T13:20:49.646Z,5.87
2017-11-06T13:23:15.735Z,4.97
2017-11-06T13:25:41.841Z,4.60
2017-11-06T13:28:07.999Z,4.87
2017-11-06T13:30:34.131Z,4.80
2017-11-06T13:33:00.253Z,3.87
2017-11-06T13:35:26.502Z,4.77
2017-11-06T13:37:52.623Z,5.30
2017-11-06T13:40:18.726Z,5.90
2017-11-06T13:42:45.590Z,5.10
2017-11-06T13:45:11.714Z,5.27
2017-11-06T13:47:38.546Z,5.83
2017-11-06T13:50:04.697Z,4.50
2017-11-06T13:52:31.523Z,5.07
2017-11-06T13:54:57.705Z,7.07
2017-11-06T13:57:23.833Z,14.50
2017-11-06T13:59:50.666Z,6.70
2017-11-06T14:02:16.785Z,5.20
2017-11-06T14:04:42.934Z,4.07
2017-11-06T14:07:09.046Z,5.33
2017-11-06T14:09:35.190Z,4.07
2017-11-06T14:12:01.839Z,4.80
2017-11-06T14:14:28.007Z,4.73
2017-11-06T14:16:54.099Z,5.40
2017-11-06T14:19:20.249Z,4.20
2017-11-06T14:21:46.348Z,4.00
2017-11-06T14:24:13.204Z,4.97
2017-11-06T14:26:40.113Z,5.40
2017-11-06T14:29:06.206Z,5.30
2017-11-06T14:31:32.355Z,4.40
2017-11-06T14:33:58.495Z,4.07
2017-11-06T14:36:24.614Z,4.53
2017-11-06T14:38:51.498Z,5.30
2017-11-06T14:41:17.633Z,4.10
2017-11-06T14:43:43.777Z,5.50
2017-11-06T14:46:09.859Z,5.23
2017-11-06T14:48:35.994Z,5.30
2017-11-06T14:51:02.154Z,5.73
2017-11-06T14:53:29.018Z,4.63
2017-11-06T14:55:55.890Z,5.37
2017-11-06T14:58:22.006Z,12.60
2017-11-06T15:00:48.893Z,6.73
2017-11-06T15:03:15.046Z,6.40
2017-11-06T15:05:41.194Z,6.73
2017-11-06T15:08:07.331Z,7.27
2017-11-06T15:10:33.455Z,8.50
2017-11-06T15:12:59.598Z,11.70
2017-11-06T15:15:25.741Z,9.20
2017-11-06T15:17:51.905Z,7.17
2017-11-06T15:20:18.002Z,6.10
2017-11-06T15:22:44.206Z,8.67
2017-11-06T15:25:11.069Z,7.20
2017-11-06T15:27:37.917Z,7.97
2017-11-06T15:30:04.765Z,7.03
2017-11-06T15:32:31.645Z,8.60
2017-11-06T15:34:57.757Z,11.17
2017-11-06T15:37:23.882Z,7.13
2017-11-06T15:39:50.008Z,7.20
2017-11-06T15:42:16.110Z,6.07
2017-11-06T15:44:42.217Z,5.97
2017-11-06T15:47:09.178Z,5.80
2017-11-06T15:49:35.269Z,6.73
2017-11-06T15:52:01.382Z,6.20
2017-11-06T15:54:27.523Z,5.63
2017-11-06T15:56:53.811Z,9.30
2017-11-06T15:59:19.955Z,5.90
2017-11-06T16:01:46.071Z,7.13
2017-11-06T16:04:12.216Z,6.10
2017-11-06T16:06:38.384Z,7.80
2017-11-06T16:09:04.527Z,7.40
2017-11-06T16:11:30.621Z,7.50
2017-11-06T16:13:56.899Z,8.07
2017-11-06T16:16:23.811Z,10.10
2017-11-06T16:18:49.934Z,12.00
2017-11-06T16:21:16.034Z,8.30
2017-11-06T16:23:42.905Z,7.83
2017-11-06T16:26:09.007Z,8.10
2017-11-06T16:28:35.133Z,9.57
2017-11-06T16:31:01.277Z,11.00
2017-11-06T16:33:27.669Z,9.23
2017-11-06T16:35:53.834Z,8.37
2017-11-06T16:38:19.970Z,8.90
2017-11-06T16:40:46.062Z,8.70
2017-11-06T16:43:12.168Z,8.70
2017-11-06T16:45:38.283Z,10.50
2017-11-06T16:48:04.399Z,9.00
2017-11-06T16:50:30.494Z,9.70
2017-11-06T16:52:56.633Z,9.30
2017-11-06T16:55:22.722Z,8.70
2017-11-06T16:57:48.830Z,8.97
2017-11-06T17:00:15.712Z,8.03
2017-11-06T17:02:41.818Z,10.47
2017-11-06T17:05:08.666Z,7.50
2017-11-06T17:07:35.569Z,10.40
2017-11-06T17:10:01.707Z,12.13
2017-11-06T17:12:27.819Z,10.33
2017-11-06T17:14:54.003Z,11.50
2017-11-06T17:17:20.099Z,11.03
2017-11-06T17:19:46.262Z,10.60
2017-11-06T17:22:12.468Z,10.40
2017-11-06T17:24:39.446Z,11.00
2017-11-06T17:27:06.197Z,10.03
2017-11-06T17:29:32.361Z,9.80
2017-11-06T17:31:59.074Z,10.50
2017-11-06T17:34:25.234Z,10.20
2017-11-06T17:36:51.355Z,10.70
2017-11-06T17:39:17.530Z,11.23
2017-11-06T17:41:43.680Z,10.90
2017-11-06T17:44:09.875Z,10.47
2017-11-06T17:46:36.003Z,10.63
2017-11-06T17:49:02.291Z,10.10
2017-11-06T17:51:28.383Z,11.17
2017-11-06T17:53:55.240Z,11.00
2017-11-06T17:56:21.362Z,12.23
2017-11-06T17:58:48.232Z,13.03
2017-11-06T18:01:14.338Z,13.83
2017-11-06T18:03:40.478Z,12.80
2017-11-06T18:06:06.571Z,11.90
2017-11-06T18:08:32.662Z,12.17
2017-11-06T18:10:58.782Z,11.83
2017-11-06T18:13:24.891Z,12.60
2017-11-06T18:15:51.043Z,12.50
2017-11-06T18:18:17.175Z,15.07
2017-11-06T18:20:43.288Z,15.20
2017-11-06T18:23:09.377Z,16.17
2017-11-06T18:25:35.538Z,19.20
2017-11-06T18:28:02.381Z,16.90
2017-11-06T18:30:28.478Z,18.50
2017-11-06T18:32:54.608Z,19.10
2017-11-06T18:35:20.748Z,18.23
2017-11-06T18:37:46.845Z,21.67
2017-11-06T18:40:13.745Z,22.60
2017-11-06T18:42:39.830Z,23.53
2017-11-06T18:45:05.926Z,25.77
2017-11-06T18:47:32.043Z,26.30
2017-11-06T18:49:58.164Z,25.93
2017-11-06T18:52:24.309Z,29.00
2017-11-06T18:54:50.481Z,30.30
2017-11-06T18:57:16.604Z,32.67
2017-11-06T18:59:42.730Z,32.13
2017-11-06T19:02:09.335Z,35.93
2017-11-06T19:04:35.465Z,32.10
2017-11-06T19:07:01.635Z,31.40
2017-11-06T19:09:27.746Z,31.20
2017-11-06T19:11:53.875Z,39.30
2017-11-06T19:14:20.006Z,33.87
2017-11-06T19:16:46.158Z,40.40
2017-11-06T19:19:12.262Z,34.60
2017-11-06T19:21:38.410Z,37.70
2017-11-06T19:24:04.505Z,34.40
2017-11-06T19:26:30.588Z,31.60
2017-11-06T19:28:56.724Z,33.90
2017-11-06T19:31:22.835Z,33.57
2017-11-06T19:33:48.950Z,34.33
2017-11-06T19:36:15.102Z,34.07
2017-11-06T19:38:41.950Z,30.87
2017-11-06T19:41:08.802Z,27.97
2017-11-06T19:43:35.657Z,29.90
2017-11-06T19:46:01.876Z,27.77
2017-11-06T19:48:28.015Z,27.63
2017-11-06T19:50:54.157Z,25.67
2017-11-06T19:53:20.257Z,26.13
2017-11-06T19:55:46.360Z,25.77
2017-11-06T19:58:13.294Z,26.30
2017-11-06T20:00:40.897Z,27.70
2017-11-06T20:03:07.936Z,26.53
2017-11-06T20:05:34.086Z,27.87
2017-11-06T20:08:00.172Z,25.70
2017-11-06T20:10:27.034Z,25.00
2017-11-06T20:12:55.084Z,26.40
2017-11-06T20:15:21.965Z,31.20
2017-11-06T20:17:48.160Z,29.90
2017-11-06T20:20:14.527Z,28.23
2017-11-06T20:22:40.868Z,30.60
2017-11-06T20:25:06.984Z,27.87
2017-11-06T20:27:33.149Z,30.27
2017-11-06T20:29:59.246Z,28.13
2017-11-06T20:32:25.471Z,29.53
2017-11-06T20:34:52.390Z,28.03
2017-11-06T20:37:18.539Z,27.93
2017-11-06T20:39:44.649Z,27.50
2017-11-06T20:42:10.775Z,26.20
2017-11-06T20:44:36.869Z,27.00
2017-11-06T20:47:03.707Z,27.03
2017-11-06T20:49:29.821Z,25.50
2017-11-06T20:51:55.952Z,29.10
2017-11-06T20:54:22.053Z,29.87
2017-11-06T20:56:48.918Z,29.33
2017-11-06T20:59:15.006Z,27.47
2017-11-06T21:01:41.132Z,28.67
2017-11-06T21:04:07.289Z,28.30
2017-11-06T21:06:33.514Z,27.40
2017-11-06T21:08:59.613Z,27.17
2017-11-06T21:11:25.802Z,26.60
2017-11-06T21:13:51.913Z,30.20
2017-11-06T21:16:18.013Z,29.40
2017-11-06T21:18:44.894Z,29.17
2017-11-06T21:21:11.090Z,29.53
2017-11-06T21:23:37.203Z,32.33
2017-11-06T21:26:03.353Z,27.40
2017-11-06T21:28:29.448Z,29.30
2017-11-06T21:30:55.586Z,31.80
2017-11-06T21:33:21.754Z,30.60
2017-11-06T21:35:47.945Z,34.07
2017-11-06T21:38:14.116Z,33.60
2017-11-06T21:40:40.270Z,38.67
2017-11-06T21:43:06.394Z,35.13
2017-11-06T21:45:32.522Z,41.07
2017-11-06T21:47:58.655Z,40.80
2017-11-06T21:50:25.156Z,39.90
2017-11-06T21:52:51.365Z,45.40
2017-11-06T21:55:17.794Z,39.47
2017-11-06T21:57:43.913Z,36.13
2017-11-06T22:00:10.085Z,36.80
2017-11-06T22:02:36.189Z,33.47
2017-11-06T22:05:02.299Z,36.97
2017-11-06T22:07:29.220Z,45.60
2017-11-06T22:09:55.330Z,40.53
2017-11-06T22:12:21.479Z,39.03
2017-11-06T22:14:47.572Z,37.80
2017-11-06T22:17:14.422Z,38.70
2017-11-06T22:19:40.513Z,37.67
2017-11-06T22:22:06.650Z,37.60
2017-11-06T22:24:32.734Z,41.30
2017-11-06T22:26:59.589Z,38.00
2017-11-06T22:29:25.698Z,35.30
2017-11-06T22:31:51.917Z,36.83
2017-11-06T22:34:18.118Z,35.47
2017-11-06T22:36:45.026Z,34.67
2017-11-06T22:39:11.134Z,34.60
2017-11-06T22:41:37.230Z,36.67
2017-11-06T22:44:03.359Z,32.60
2017-11-06T22:46:29.537Z,39.87
2017-11-06T22:48:55.664Z,38.50
2017-11-06T22:51:21.783Z,38.60
2017-11-06T22:53:47.915Z,38.70
2017-11-06T22:56:14.055Z,45.10
2017-11-06T22:58:40.190Z,39.60
2017-11-06T23:01:06.381Z,41.60
2017-11-06T23:03:32.536Z,40.10
2017-11-06T23:05:58.665Z,36.43
2017-11-06T23:08:24.850Z,40.10
2017-11-06T23:10:51.156Z,39.30
2017-11-06T23:13:17.275Z,34.27
2017-11-06T23:15:43.520Z,36.00
2017-11-06T23:18:09.729Z,33.97
2017-11-06T23:20:36.574Z,34.17
2017-11-06T23:23:03.445Z,34.50
2017-11-06T23:25:30.343Z,32.30
2017-11-06T23:27:56.450Z,33.60
2017-11-06T23:30:22.553Z,32.97
2017-11-06T23:32:48.781Z,29.90
2017-11-06T23:35:14.917Z,30.50
2017-11-06T23:37:41.053Z,27.70
2017-11-06T23:40:07.194Z,27.87
2017-11-06T23:42:33.318Z,28.97
2017-11-06T23:44:59.439Z,29.30
2017-11-06T23:47:25.637Z,29.60
2017-11-06T23:49:52.506Z,30.00
2017-11-06T23:52:18.638Z,35.77
2017-11-06T23:54:45.521Z,34.40
2017-11-06T23:57:11.638Z,33.03
2017-11-06T23:59:37.750Z,32.07
